TimePST,TemperatureF,Dew PointF,Humidity,Sea Level PressureIn,VisibilityMPH,Wind Direction,Wind SpeedMPH,Gust SpeedMPH,PrecipitationIn,Events,Conditions,WindDirDegrees,DateUTC
12:58 AM,29.8,7.2,38,30.33,10.0,Calm,Calm,-,N/A,,Clear,0,2013-01-04 08:58:00
1:58 AM,27.9,7.7,43,30.34,10.0,Calm,Calm,-,N/A,,Clear,0,2013-01-04 09:58:00
2:58 AM,29.8,7.5,39,30.34,10.0,WSW,1.2,-,N/A,,Clear,240,2013-01-04 10:58:00
3:58 AM,28.6,7.3,41,30.34,10.0,NW,2.3,-,N/A,,Clear,320,2013-01-04 11:58:00
4:58 AM,28.0,8.6,44,30.35,10.0,NNW,4.6,-,N/A,,Clear,330,2013-01-04 12:58:00
5:58 AM,26.4,8.6,47,30.37,10.0,North,2.3,-,N/A,,Clear,360,2013-01-04 13:58:00
6:58 AM,27.3,9.5,47,30.39,10.0,North,2.3,-,N/A,,Clear,360,2013-01-04 14:58:00
7:58 AM,29.5,9.1,43,30.40,10.0,NW,3.5,-,N/A,,Clear,310,2013-01-04 15:58:00
8:58 AM,36.5,11.7,36,30.40,10.0,WNW,3.5,-,N/A,,Clear,300,2013-01-04 16:58:00
9:58 AM,40.6,7.5,26,30.41,10.0,SW,2.3,-,N/A,,Clear,230,2013-01-04 17:58:00
10:58 AM,42.4,7.5,24,30.38,10.0,SE,2.3,-,N/A,,Clear,140,2013-01-04 18:58:00
11:58 AM,46.2,8.2,21,30.33,10.0,Calm,Calm,-,N/A,,Clear,0,2013-01-04 19:58:00
12:58 PM,49.8,8.2,19,30.29,10.0,Calm,Calm,-,N/A,,Clear,0,2013-01-04 20:58:00
1:58 PM,49.3,7.7,19,30.28,10.0,South,2.3,-,N/A,,Clear,170,2013-01-04 21:58:00
2:58 PM,50.4,7.2,17,30.28,10.0,East,5.8,-,N/A,,Clear,80,2013-01-04 22:58:00
3:58 PM,49.8,8.1,18,30.28,10.0,ENE,4.6,-,N/A,,Clear,70,2013-01-04 23:58:00
4:58 PM,48.2,7.9,19,30.28,10.0,NE,2.3,-,N/A,,Clear,50,2013-01-05 00:58:00
5:58 PM,39.9,9.5,29,30.31,10.0,ENE,8.1,-,N/A,,Clear,60,2013-01-05 01:58:00
6:58 PM,37.0,9.9,33,30.31,10.0,NE,5.8,-,N/A,,Clear,40,2013-01-05 02:58:00
7:58 PM,35.1,10.8,37,30.32,10.0,NNE,4.6,-,N/A,,Clear,30,2013-01-05 03:58:00
8:58 PM,31.6,10.6,42,30.33,10.0,East,1.2,-,N/A,,Clear,90,2013-01-05 04:58:00
9:58 PM,31.5,10.8,42,30.33,10.0,NE,2.3,-,N/A,,Clear,40,2013-01-05 05:58:00
10:58 PM,30.0,12.2,48,30.34,10.0,NE,4.6,-,N/A,,Clear,40,2013-01-05 06:58:00
11:58 PM,30.0,11.5,46,30.33,10.0,NNE,2.3,-,N/A,,Clear,20,2013-01-05 07:58:00